Time;durP1;ratioP1;P1;durP2;ratioP2;P2;SDS_P1;SDS_P2;PMS_P1;PMS_P2;Temp;Humidity;BMP_temperature;BMP_pressure;BME280_temperature;BME280_humidity;BME280_pressure;Samples;Min_cycle;Max_cycle;Signal;HPM_P1;HPM_P2
2021/11/18 00:02:06;;;;;;;;;;;;;;;13.25;60.88;101426.06;4882925;28;127551;-59
2021/11/18 00:04:31;;;;;;;;;;;;;;;13.25;60.80;101426.06;4883937;28;98915;-59
2021/11/18 00:06:57;;;;;;;;;;;;;;;13.26;60.97;101427.69;4884191;28;102805;-59
2021/11/18 00:09:24;;;;;;;;;;;;;;;13.25;60.88;101431.47;4884874;28;97878;-59
2021/11/18 00:11:50;;;;;;;;;;;;;;;13.26;60.56;101441.22;4888347;28;98596;-67
2021/11/18 00:14:17;;;;;;;;;;;;;;;13.26;61.04;101430.38;4883511;28;99501;-59
2021/11/18 00:16:43;;;;;;;;;;;;;;;13.26;61.00;101441.22;4884300;28;98097;-67
2021/11/18 00:19:09;;;;;;;;;;;;;;;13.27;60.81;101440.13;4865606;28;122235;-58
2021/11/18 00:21:39;;;;;;;;;;;;;;;13.29;61.02;101435.28;4882927;28;123310;-58
2021/11/18 00:24:07;;;;;;;;;;;;;;;13.29;61.10;101445.31;4865759;28;121873;-68
2021/11/18 00:26:33;;;;;;;;;;;;;;;13.29;60.97;101442.59;4883057;28;118200;-58
2021/11/18 00:28:59;;;;;;;;;;;;;;;13.29;60.57;101439.91;4884322;28;97937;-58
2021/11/18 00:31:27;;;;;;;;;;;;;;;13.29;60.82;101442.59;4865541;28;100907;-67
2021/11/18 00:33:53;;;;;;;;;;;;;;;13.31;60.89;101449.38;4883663;28;126613;-59
2021/11/18 00:36:19;;;;;;;;;;;;;;;13.32;61.02;101451.00;4882968;28;116725;-68
2021/11/18 00:38:45;;;;;;;;;;;;;;;13.33;61.07;101446.41;4882358;28;123723;-59
2021/11/18 00:41:12;;;;;;;;;;;;;;;13.32;60.98;101456.41;4883685;28;128190;-58
2021/11/18 00:43:38;;;;;;;;;;;;;;;13.33;61.15;101455.34;4884362;28;98366;-58
2021/11/18 00:46:04;;;;;;;;;;;;;;;13.34;61.03;101461.56;4884072;28;98023;-58
2021/11/18 00:48:30;;;;;;;;;;;;;;;13.34;61.04;101467.81;4883232;28;97941;-58
2021/11/18 00:51:00;;;;;;;;;;;;;;;13.34;60.88;101467.81;4882559;28;118686;-59
2021/11/18 00:53:26;;;;;;;;;;;;;;;13.34;61.02;101462.38;4866888;28;98902;-58
2021/11/18 00:55:52;;;;;;;;;;;;;;;13.34;60.91;101464.28;4882848;28;112926;-66
2021/11/18 00:58:18;;;;;;;;;;;;;;;13.34;60.98;101462.38;4883903;28;107377;-58
2021/11/18 01:00:45;;;;;;;;;;;;;;;13.33;60.99;101460.75;4883140;28;123160;-58
2021/11/18 01:03:11;;;;;;;;;;;;;;;13.34;60.96;101461.56;4884015;28;98298;-67
2021/11/18 01:05:39;;;;;;;;;;;;;;;13.34;60.60;101469.69;4881278;28;122384;-66
2021/11/18 01:08:05;;;;;;;;;;;;;;;13.33;60.95;101471.59;4883736;28;97755;-58
2021/11/18 01:10:38;;;;;;;;;;;;;;;13.33;61.00;101471.59;4883227;28;99085;-66
2021/11/18 01:13:05;;;;;;;;;;;;;;;13.33;60.91;101473.50;4883242;28;98495;-58
2021/11/18 01:15:32;;;;;;;;;;;;;;;13.31;60.95;101476.44;4883196;28;98042;-58
2021/11/18 01:17:58;;;;;;;;;;;;;;;13.32;60.69;101491.59;4884493;28;97888;-67
2021/11/18 01:20:24;;;;;;;;;;;;;;;13.33;60.82;101481.63;4881739;28;120164;-58
2021/11/18 01:22:52;;;;;;;;;;;;;;;13.30;60.77;101485.66;4883100;28;98146;-66
2021/11/18 01:25:18;;;;;;;;;;;;;;;13.32;60.99;101488.91;4865607;28;98397;-58
2021/11/18 01:27:45;;;;;;;;;;;;;;;13.31;60.75;101500.81;4865132;28;119000;-58
2021/11/18 01:30:13;;;;;;;;;;;;;;;13.30;60.85;101492.97;4883051;28;120175;-66
2021/11/18 01:32:39;;;;;;;;;;;;;;;13.30;61.11;101507.31;4883236;28;98706;-66
2021/11/18 01:35:06;;;;;;;;;;;;;;;13.29;61.17;101491.34;4865715;28;98088;-67
2021/11/18 01:37:34;;;;;;;;;;;;;;;13.27;61.02;101505.94;4865708;28;97849;-67
2021/11/18 01:39:59;;;;;;;;;;;;;;;13.27;60.88;101505.13;4881899;28;128762;-58
2021/11/18 01:42:25;;;;;;;;;;;;;;;13.26;60.83;101503.50;4882432;28;129041;-67
2021/11/18 01:44:52;;;;;;;;;;;;;;;13.25;61.04;101508.09;4882207;28;99047;-58
2021/11/18 01:47:18;;;;;;;;;;;;;;;13.25;60.84;101501.88;4882691;28;122615;-58
2021/11/18 01:49:45;;;;;;;;;;;;;;;13.24;61.06;101508.34;4864139;28;109438;-67
2021/11/18 01:52:14;;;;;;;;;;;;;;;13.22;60.86;101508.56;4865486;28;98024;-67
2021/11/18 01:54:41;;;;;;;;;;;;;;;13.21;60.85;101501.53;4849974;28;97967;-58
2021/11/18 01:57:08;;;;;;;;;;;;;;;13.20;60.86;101496.38;4883007;28;97875;-66
2021/11/18 01:59:37;;;;;;;;;;;;;;;13.18;61.17;101502.06;4882282;28;124064;-66
2021/11/18 02:02:03;;;;;;;;;;;;;;;13.18;60.97;101493.94;4864499;28;98396;-58
2021/11/18 02:04:30;;;;;;;;;;;;;;;13.17;60.66;101510.44;4881142;28;118045;-58
2021/11/18 02:07:01;;;;;;;;;;;;;;;13.17;60.76;101513.16;4883325;28;109685;-59
2021/11/18 02:09:28;;;;;;;;;;;;;;;13.16;60.92;101516.91;4882756;28;98781;-66
2021/11/18 02:11:56;;;;;;;;;;;;;;;13.16;60.71;101514.19;4883002;28;98823;-59
2021/11/18 02:14:23;;;;;;;;;;;;;;;13.15;60.86;101510.69;4880303;28;111772;-59
2021/11/18 02:16:50;;;;;;;;;;;;;;;13.16;60.90;101514.19;4864603;28;98171;-67
2021/11/18 02:19:16;;;;;;;;;;;;;;;13.16;60.91;101514.19;4881270;28;123546;-58
2021/11/18 02:21:48;;;;;;;;;;;;;;;13.16;60.92;101522.31;4881958;28;99189;-58
2021/11/18 02:24:21;;;;;;;;;;;;;;;13.15;61.20;101518.81;4881186;28;125619;-58
2021/11/18 02:26:47;;;;;;;;;;;;;;;13.16;61.00;101525.03;4865544;28;98105;-58
2021/11/18 02:29:13;;;;;;;;;;;;;;;13.16;60.84;101520.44;4880773;28;128102;-67
2021/11/18 02:31:43;;;;;;;;;;;;;;;13.16;60.94;101520.44;4880766;28;127646;-67
2021/11/18 02:34:17;;;;;;;;;;;;;;;13.16;61.01;101522.31;4882532;28;97877;-58
2021/11/18 02:36:43;;;;;;;;;;;;;;;13.17;60.83;101523.97;4864143;28;114544;-59
2021/11/18 02:39:09;;;;;;;;;;;;;;;13.16;60.98;101516.91;4881172;28;128878;-67
2021/11/18 02:41:35;;;;;;;;;;;;;;;13.16;60.88;101522.31;4864252;28;98002;-59
2021/11/18 02:44:01;;;;;;;;;;;;;;;13.15;60.78;101524.22;4863148;28;123431;-58
2021/11/18 02:46:27;;;;;;;;;;;;;;;13.14;61.19;101521.78;4883074;28;97865;-58
2021/11/18 02:48:53;;;;;;;;;;;;;;;13.14;60.83;101528.00;4881155;28;127371;-66
2021/11/18 02:51:19;;;;;;;;;;;;;;;13.15;60.76;101532.34;4881671;28;98313;-67
2021/11/18 02:53:45;;;;;;;;;;;;;;;13.15;60.74;101528.81;4881393;28;116138;-67
2021/11/18 02:56:11;;;;;;;;;;;;;;;13.14;60.83;101536.13;4864684;28;98349;-67
2021/11/18 02:58:37;;;;;;;;;;;;;;;13.15;61.05;101539.66;4881621;28;98269;-67
2021/11/18 03:01:16;;;;;;;;;;;;;;;13.15;60.75;101539.66;4881925;28;126065;-59
2021/11/18 03:03:42;;;;;;;;;;;;;;;13.14;60.82;101546.97;4884498;28;100359;-66
2021/11/18 03:06:08;;;;;;;;;;;;;;;13.14;60.64;101549.66;4885582;28;98156;-58
2021/11/18 03:08:34;;;;;;;;;;;;;;;13.14;60.93;101548.84;4867264;28;99458;-59
2021/11/18 03:11:00;;;;;;;;;;;;;;;13.14;60.94;101546.16;4885185;28;99777;-67
2021/11/18 03:13:27;;;;;;;;;;;;;;;13.13;60.80;101548.03;4885200;28;98315;-58
2021/11/18 03:15:53;;;;;;;;;;;;;;;13.13;60.80;101547.22;4866833;28;113526;-67
2021/11/18 03:18:22;;;;;;;;;;;;;;;13.12;60.71;101546.38;4884877;28;108965;-58
2021/11/18 03:20:49;;;;;;;;;;;;;;;13.12;60.81;101546.38;4866324;28;98924;-59
2021/11/18 03:23:15;;;;;;;;;;;;;;;13.12;60.87;101549.09;4885488;28;98140;-58
2021/11/18 03:25:41;;;;;;;;;;;;;;;13.12;60.96;101540.97;4883858;28;123689;-59
2021/11/18 03:28:07;;;;;;;;;;;;;;;13.12;60.94;101537.44;4883929;28;101057;-58
2021/11/18 03:30:35;;;;;;;;;;;;;;;13.11;61.01;101544.75;4884456;28;97878;-67
2021/11/18 03:33:04;;;;;;;;;;;;;;;13.12;60.85;101545.56;4884665;28;98295;-66
2021/11/18 03:35:30;;;;;;;;;;;;;;;13.11;60.96;101549.38;4884510;28;106420;-58
2021/11/18 03:37:56;;;;;;;;;;;;;;;13.11;60.90;101543.94;4884460;28;123101;-58
2021/11/18 03:40:23;;;;;;;;;;;;;;;13.12;60.97;101553.69;4883856;28;98231;-59
2021/11/18 03:42:49;;;;;;;;;;;;;;;13.11;61.01;101544.75;4885032;28;98514;-58
2021/11/18 03:45:16;;;;;;;;;;;;;;;13.12;61.00;101557.22;4883441;28;123771;-67
2021/11/18 03:47:42;;;;;;;;;;;;;;;13.13;61.02;101561.56;4884516;28;105730;-59
2021/11/18 03:50:08;;;;;;;;;;;;;;;13.13;61.01;101552.63;4884088;28;98367;-67
2021/11/18 03:52:34;;;;;;;;;;;;;;;13.13;60.80;101555.34;4866435;28;98543;-67
2021/11/18 03:55:00;;;;;;;;;;;;;;;13.13;60.93;101563.47;4884024;28;122260;-59
2021/11/18 03:57:26;;;;;;;;;;;;;;;13.14;60.78;101562.38;4883709;28;128576;-67
2021/11/18 03:59:52;;;;;;;;;;;;;;;13.15;61.10;101569.44;4884338;28;99500;-59
2021/11/18 04:02:18;;;;;;;;;;;;;;;13.15;61.02;101570.25;4884501;28;98177;-58
2021/11/18 04:04:47;;;;;;;;;;;;;;;13.15;60.97;101567.53;4884133;28;97923;-67
2021/11/18 04:07:13;;;;;;;;;;;;;;;13.16;60.98;101573.75;4883607;28;123920;-67
2021/11/18 04:09:39;;;;;;;;;;;;;;;13.16;60.71;101571.06;4884231;28;98062;-58
2021/11/18 04:12:06;;;;;;;;;;;;;;;13.17;60.72;101572.72;4884071;28;98068;-59
2021/11/18 04:14:33;;;;;;;;;;;;;;;13.17;60.82;101578.13;4881743;28;113212;-67
2021/11/18 04:16:59;;;;;;;;;;;;;;;13.16;60.90;101552.09;4884383;28;98614;-59
2021/11/18 04:19:25;;;;;;;;;;;;;;;13.16;61.08;101543.97;4882566;28;127839;-59
2021/11/18 04:21:51;;;;;;;;;;;;;;;13.16;60.91;101538.56;4882745;28;111587;-59
2021/11/18 04:24:19;;;;;;;;;;;;;;;13.15;61.02;101536.94;4884404;28;97980;-59
2021/11/18 04:26:45;;;;;;;;;;;;;;;13.14;60.94;101532.63;4883579;28;105476;-67
2021/11/18 04:29:12;;;;;;;;;;;;;;;13.14;60.69;101530.72;4883236;28;119330;-58
2021/11/18 04:31:38;;;;;;;;;;;;;;;13.13;60.80;101537.22;4883451;28;98212;-58
2021/11/18 04:34:06;;;;;;;;;;;;;;;13.13;60.70;101541.81;4884273;28;119019;-67
2021/11/18 04:36:32;;;;;;;;;;;;;;;13.11;60.89;101547.47;4883371;28;99370;-67
2021/11/18 04:38:58;;;;;;;;;;;;;;;13.12;61.10;101557.22;4884163;28;123090;-58
2021/11/18 04:41:26;;;;;;;;;;;;;;;13.11;60.98;101552.88;4882906;28;102859;-67
2021/11/18 04:43:52;;;;;;;;;;;;;;;13.11;61.00;101552.06;4883483;28;98070;-58
2021/11/18 04:46:18;;;;;;;;;;;;;;;13.10;60.95;101556.66;4882578;28;126981;-68
2021/11/18 04:48:44;;;;;;;;;;;;;;;13.10;60.74;101575.63;4884843;28;97961;-67
2021/11/18 04:51:11;;;;;;;;;;;;;;;13.09;60.77;101563.16;4881689;28;128285;-67
2021/11/18 04:53:37;;;;;;;;;;;;;;;13.09;60.90;101562.34;4866421;28;97799;-60
2021/11/18 04:56:03;;;;;;;;;;;;;;;13.08;60.96;101572.34;4883193;28;98363;-58
2021/11/18 04:58:29;;;;;;;;;;;;;;;13.07;60.99;101576.13;4884142;28;98609;-58
2021/11/18 05:00:56;;;;;;;;;;;;;;;13.06;60.94;101579.09;4882562;28;123697;-67
2021/11/18 05:03:23;;;;;;;;;;;;;;;13.07;60.67;101588.84;4884899;28;97991;-58
2021/11/18 05:05:49;;;;;;;;;;;;;;;13.06;60.71;101585.31;4883198;28;100569;-59
2021/11/18 05:08:15;;;;;;;;;;;;;;;13.06;60.78;101584.50;4883422;28;129738;-58
2021/11/18 05:10:42;;;;;;;;;;;;;;;13.06;60.86;101600.75;4881578;28;128506;-59
2021/11/18 05:13:09;;;;;;;;;;;;;;;13.05;60.65;101602.66;4883197;28;97832;-58
2021/11/18 05:15:39;;;;;;;;;;;;;;;13.05;60.83;101610.78;4881882;28;122867;-59
2021/11/18 05:18:05;;;;;;;;;;;;;;;13.04;60.83;101603.69;4866216;28;103928;-59
2021/11/18 05:20:32;;;;;;;;;;;;;;;13.06;61.07;101619.69;4883127;28;97938;-58
2021/11/18 05:22:58;;;;;;;;;;;;;;;13.06;60.97;101612.41;4883318;28;98008;-59
2021/11/18 05:25:26;;;;;;;;;;;;;;;13.06;60.79;101606.97;4881921;28;128941;-59
2021/11/18 05:27:52;;;;;;;;;;;;;;;13.08;61.00;101606.72;4881946;28;99254;-58
2021/11/18 05:30:18;;;;;;;;;;;;;;;13.07;61.00;101605.91;4880562;28;127864;-59
2021/11/18 05:32:44;;;;;;;;;;;;;;;13.08;60.89;101615.66;4881448;28;116559;-59
2021/11/18 05:35:10;;;;;;;;;;;;;;;13.09;60.96;101597.53;4881980;28;98699;-59
2021/11/18 05:37:37;;;;;;;;;;;;;;;13.09;60.64;101606.47;4882998;28;98622;-59
2021/11/18 05:40:04;;;;;;;;;;;;;;;13.09;60.73;101603.78;4881971;28;98772;-58
2021/11/18 05:42:30;;;;;;;;;;;;;;;13.10;60.71;101607.28;4881564;28;97889;-59
2021/11/18 05:44:56;;;;;;;;;;;;;;;13.10;60.71;101607.28;4881475;28;98308;-59
2021/11/18 05:47:22;;;;;;;;;;;;;;;13.09;60.79;101611.88;4881503;28;97792;-58
2021/11/18 05:49:48;;;;;;;;;;;;;;;13.09;60.79;101605.66;4881217;28;108934;-58
2021/11/18 05:52:14;;;;;;;;;;;;;;;13.08;61.06;101610.22;4881504;28;98225;-58
2021/11/18 05:54:40;;;;;;;;;;;;;;;13.08;60.93;101614.84;4880290;28;122762;-58
2021/11/18 05:57:06;;;;;;;;;;;;;;;13.07;60.76;101613.22;4881733;28;98576;-59
2021/11/18 05:59:32;;;;;;;;;;;;;;;13.07;60.78;101616.72;4880660;28;101298;-58
2021/11/18 06:01:59;;;;;;;;;;;;;;;13.07;60.72;101618.63;4881530;28;98054;-57
2021/11/18 06:04:25;;;;;;;;;;;;;;;13.06;60.77;101617.81;4881571;28;98030;-59
2021/11/18 06:06:51;;;;;;;;;;;;;;;13.06;60.82;101620.50;4880730;28;109804;-58
2021/11/18 06:09:17;;;;;;;;;;;;;;;13.06;60.97;101628.63;4881960;28;98736;-58
2021/11/18 06:11:43;;;;;;;;;;;;;;;13.06;60.74;101625.94;4863394;28;117375;-58
2021/11/18 06:14:10;;;;;;;;;;;;;;;13.07;60.89;101632.97;4880243;28;106226;-58
2021/11/18 06:16:35;;;;;;;;;;;;;;;13.06;60.69;101635.94;4881183;28;103533;-59
2021/11/18 06:19:02;;;;;;;;;;;;;;;13.07;60.94;101641.09;4880108;28;127599;-59
2021/11/18 06:21:29;;;;;;;;;;;;;;;13.06;60.42;101636.75;4880543;28;97991;-59
2021/11/18 06:23:55;;;;;;;;;;;;;;;13.08;60.74;101639.19;4879571;28;99034;-58
2021/11/18 06:26:24;;;;;;;;;;;;;;;13.08;60.85;101639.19;4879126;28;98876;-67
2021/11/18 06:28:50;;;;;;;;;;;;;;;13.08;60.74;101634.59;4869687;28;99965;-67
2021/11/18 06:31:16;;;;;;;;;;;;;;;13.10;60.86;101637.06;4882278;28;121793;-58
2021/11/18 06:33:42;;;;;;;;;;;;;;;13.09;60.82;101651.69;4881220;28;125174;-67
2021/11/18 06:36:08;;;;;;;;;;;;;;;13.09;60.68;101659.81;4883667;28;98447;-67
2021/11/18 06:38:35;;;;;;;;;;;;;;;13.11;60.86;101654.94;4866905;28;98191;-58
2021/11/18 06:41:02;;;;;;;;;;;;;;;13.11;60.74;101652.22;4884540;28;99647;-66
2021/11/18 06:43:28;;;;;;;;;;;;;;;13.12;60.70;101649.25;4885004;28;98797;-58
2021/11/18 06:45:54;;;;;;;;;;;;;;;13.13;60.80;101648.19;4884949;28;117202;-58
2021/11/18 06:48:22;;;;;;;;;;;;;;;13.14;60.54;101649.81;4884431;28;128033;-58
2021/11/18 06:50:48;;;;;;;;;;;;;;;13.15;60.61;101653.34;4885068;28;98121;-58
2021/11/18 06:53:14;;;;;;;;;;;;;;;13.17;60.53;101640.38;4884879;28;102973;-58
2021/11/18 06:55:40;;;;;;;;;;;;;;;13.19;60.56;101647.16;4884168;28;113925;-67
2021/11/18 06:58:06;;;;;;;;;;;;;;;13.25;60.46;101648.06;4885149;28;124583;-58
2021/11/18 07:00:32;;;;;;;;;;;;;;;13.31;60.37;101643.50;4884329;28;123376;-58
2021/11/18 07:02:58;;;;;;;;;;;;;;;13.38;60.33;101652.25;4883989;28;126052;-59
2021/11/18 07:05:24;;;;;;;;;;;;;;;13.41;60.52;101654.44;4884833;28;128667;-66
2021/11/18 07:07:50;;;;;;;;;;;;;;;13.44;60.41;101651.19;4883187;28;121151;-58
2021/11/18 07:10:16;;;;;;;;;;;;;;;13.46;60.46;101658.00;4882819;28;97898;-58
2021/11/18 07:12:42;;;;;;;;;;;;;;;13.48;60.37;101658.56;4885325;28;98733;-66
2021/11/18 07:15:10;;;;;;;;;;;;;;;13.50;60.30;101656.41;4884336;28;115894;-59
2021/11/18 07:17:36;;;;;;;;;;;;;;;13.54;60.30;101654.00;4885361;28;97895;-68
2021/11/18 07:20:03;;;;;;;;;;;;;;;13.56;60.33;101665.41;4886052;28;98144;-56
2021/11/18 07:22:30;;;;;;;;;;;;;;;13.56;60.38;101665.41;4884661;28;99869;-67
2021/11/18 07:24:56;;;;;;;;;;;;;;;13.58;60.52;101673.28;4885612;28;98126;-67
2021/11/18 07:27:22;;;;;;;;;;;;;;;13.58;60.60;101674.09;4883668;28;109722;-58
2021/11/18 07:29:48;;;;;;;;;;;;;;;13.59;60.46;101674.91;4884655;28;97853;-67
2021/11/18 07:32:14;;;;;;;;;;;;;;;13.60;60.48;101679.25;4878359;28;98726;-67
2021/11/18 07:34:40;;;;;;;;;;;;;;;13.63;60.39;101673.31;4873395;28;128216;-67
2021/11/18 07:37:06;;;;;;;;;;;;;;;13.72;59.94;101675.28;4883865;28;117263;-59
2021/11/18 07:39:32;;;;;;;;;;;;;;;13.73;60.30;101679.63;4883335;28;122642;-66
2021/11/18 07:41:58;;;;;;;;;;;;;;;13.74;60.24;101677.72;4883376;28;126804;-67
2021/11/18 07:44:24;;;;;;;;;;;;;;;13.93;60.12;101678.97;4883843;28;127698;-67
2021/11/18 07:46:50;;;;;;;;;;;;;;;14.25;59.34;101686.22;4883328;28;127585;-67
2021/11/18 07:49:16;;;;;;;;;;;;;;;14.54;59.01;101678.56;4868053;28;97859;-67
2021/11/18 07:51:42;;;;;;;;;;;;;;;14.80;58.47;101682.16;4884439;28;128528;-67
2021/11/18 07:54:09;;;;;;;;;;;;;;;15.12;58.31;101683.88;4885409;28;98429;-67
2021/11/18 07:56:37;;;;;;;;;;;;;;;15.51;57.76;101683.41;4866613;28;98461;-67
2021/11/18 07:59:04;;;;;;;;;;;;;;;15.88;57.35;101675.00;4884982;28;97816;-67
2021/11/18 08:01:30;;;;;;;;;;;;;;;16.34;56.76;101672.16;4884547;28;98345;-67
2021/11/18 08:03:56;;;;;;;;;;;;;;;16.23;57.29;101671.41;4884064;28;98282;-66
2021/11/18 08:06:27;;;;;;;;;;;;;;;16.15;57.72;101670.06;4883720;28;127214;-68
2021/11/18 08:08:54;;;;;;;;;;;;;;;16.38;57.50;101674.06;4884135;28;98250;-67
2021/11/18 08:11:29;;;;;;;;;;;;;;;16.16;57.93;101682.56;4884662;28;98577;-67
2021/11/18 08:13:55;;;;;;;;;;;;;;;15.99;58.56;101695.63;4884363;28;105354;-68
2021/11/18 08:16:21;;;;;;;;;;;;;;;15.84;58.76;101693.75;4885732;28;97883;-67
2021/11/18 08:18:46;;;;;;;;;;;;;;;15.71;59.03;101692.38;4866726;28;99367;-67
2021/11/18 08:21:12;;;;;;;;;;;;;;;15.64;58.87;101691.00;4866189;28;106653;-68
2021/11/18 08:23:38;;;;;;;;;;;;;;;15.58;59.09;101695.63;4882994;28;127673;-68
2021/11/18 08:26:07;;;;;;;;;;;;;;;15.54;59.08;101707.31;4883270;28;126988;-58
2021/11/18 08:28:32;;;;;;;;;;;;;;;15.53;59.09;101713.84;4884723;28;97935;-58
2021/11/18 08:31:01;;;;;;;;;;;;;;;15.51;59.11;101710.56;4883381;28;127028;-59
2021/11/18 08:33:27;;;;;;;;;;;;;;;15.47;59.40;101721.16;4883504;28;98345;-67
2021/11/18 08:35:53;;;;;;;;;;;;;;;15.44;59.42;101733.41;4883713;28;108380;-59
2021/11/18 08:38:19;;;;;;;;;;;;;;;15.36;59.66;101743.94;4883513;28;121675;-59
2021/11/18 08:40:49;;;;;;;;;;;;;;;15.25;59.63;101742.28;4882786;28;98525;-59
2021/11/18 08:43:15;;;;;;;;;;;;;;;15.19;60.02;101739.56;4883614;28;98595;-58
2021/11/18 08:45:41;;;;;;;;;;;;;;;15.13;60.05;101735.22;4864890;28;101660;-67
2021/11/18 08:48:07;;;;;;;;;;;;;;;15.03;60.33;101737.91;4883281;28;98033;-58
2021/11/18 08:50:33;;;;;;;;;;;;;;;15.01;60.27;101739.22;4883174;28;99513;-67
2021/11/18 08:52:59;;;;;;;;;;;;;;;14.97;60.18;101737.06;4883914;28;98272;-59
2021/11/18 08:55:29;;;;;;;;;;;;;;;14.94;60.35;101731.34;4882939;28;126605;-66
2021/11/18 08:57:55;;;;;;;;;;;;;;;14.88;60.52;101735.13;4883772;28;106451;-67
2021/11/18 09:00:24;;;;;;;;;;;;;;;14.87;60.20;101728.88;4880939;28;120785;-67
2021/11/18 09:02:50;;;;;;;;;;;;;;;14.85;60.67;101731.03;4865884;28;98142;-68
2021/11/18 09:05:17;;;;;;;;;;;;;;;14.88;60.23;101733.22;4865216;28;115255;-67
2021/11/18 09:07:43;;;;;;;;;;;;;;;14.90;60.30;101731.06;4882905;28;97957;-65
2021/11/18 09:10:12;;;;;;;;;;;;;;;14.91;60.38;101734.59;4864730;28;128183;-67
2021/11/18 09:12:39;;;;;;;;;;;;;;;14.90;60.76;101736.50;4849706;28;98884;-67
2021/11/18 09:15:05;;;;;;;;;;;;;;;14.88;60.45;101730.50;4882959;28;97863;-68
2021/11/18 09:17:31;;;;;;;;;;;;;;;14.89;60.39;101734.03;4849915;28;98286;-59
2021/11/18 09:19:57;;;;;;;;;;;;;;;14.93;60.42;101743.28;4881953;28;129301;-67
2021/11/18 09:22:23;;;;;;;;;;;;;;;14.95;60.54;101730.28;4883472;28;114243;-59
2021/11/18 09:24:58;;;;;;;;;;;;;;;15.01;60.24;101733.81;4881888;28;126948;-67
2021/11/18 09:27:40;;;;;;;;;;;;;;;14.98;60.40;101735.16;4884124;28;98068;-67
2021/11/18 09:30:08;;;;;;;;;;;;;;;15.00;60.66;101743.84;4882992;28;98414;-67
2021/11/18 09:32:34;;;;;;;;;;;;;;;15.00;60.76;101749.28;4882109;28;98489;-67
2021/11/18 09:35:01;;;;;;;;;;;;;;;14.98;60.55;101749.56;4881160;28;127451;-67
2021/11/18 09:37:27;;;;;;;;;;;;;;;14.99;60.67;101761.22;4864907;28;105884;-58
2021/11/18 09:39:53;;;;;;;;;;;;;;;14.94;60.59;101766.66;4880978;28;128804;-58
2021/11/18 09:42:22;;;;;;;;;;;;;;;14.89;61.00;101767.41;4882601;28;126835;-67
2021/11/18 09:45:05;;;;;;;;;;;;;;;14.87;60.79;101760.66;4882497;28;98488;-67
2021/11/18 09:48:08;;;;;;;;;;;;;;;14.89;60.92;101753.03;4864601;28;98024;-67
2021/11/18 09:51:05;;;;;;;;;;;;;;;14.94;60.98;101764.75;4882018;28;98689;-58
2021/11/18 09:54:10;;;;;;;;;;;;;;;14.97;60.82;101756.06;4882951;28;98747;-58
2021/11/18 09:56:41;;;;;;;;;;;;;;;15.02;60.56;101751.75;4849800;28;122669;-67
2021/11/18 09:59:17;;;;;;;;;;;;;;;15.06;60.71;101753.66;4864529;28;115785;-59
2021/11/18 10:02:17;;;;;;;;;;;;;;;15.11;60.86;101748.25;4864495;28;120261;-59
2021/11/18 10:05:15;;;;;;;;;;;;;;;15.08;60.92;101739.81;4867555;28;98343;-58
2021/11/18 10:07:45;;;;;;;;;;;;;;;15.11;60.81;101736.56;4869275;28;98598;-59
2021/11/18 10:10:21;;;;;;;;;;;;;;;15.16;60.65;101733.84;4883496;28;97900;-67
2021/11/18 10:13:00;;;;;;;;;;;;;;;15.23;60.90;101727.09;4882140;28;98923;-67
2021/11/18 10:15:29;;;;;;;;;;;;;;;15.32;60.82;101735.53;4864949;28;98622;-66
2021/11/18 10:18:14;;;;;;;;;;;;;;;15.40;60.70;101734.19;4883376;28;98249;-67
2021/11/18 10:20:41;;;;;;;;;;;;;;;15.49;60.31;101742.63;4866062;28;117070;-66
2021/11/18 10:23:11;;;;;;;;;;;;;;;15.55;60.52;101734.22;4848142;28;122044;-67
2021/11/18 10:25:40;;;;;;;;;;;;;;;15.68;60.36;101733.72;4882068;28;117398;-67
2021/11/18 10:28:21;;;;;;;;;;;;;;;15.76;60.22;101726.94;4882538;28;98671;-67
2021/11/18 10:31:16;;;;;;;;;;;;;;;15.88;60.04;101730.19;4883209;28;98015;-58
2021/11/18 10:34:06;;;;;;;;;;;;;;;16.06;59.80;101723.38;4871323;28;98314;-66
2021/11/18 10:36:53;;;;;;;;;;;;;;;16.20;59.74;101718.19;4882048;28;98296;-67
2021/11/18 10:39:40;;;;;;;;;;;;;;;16.32;59.72;101713.28;4864188;28;113427;-59
2021/11/18 10:42:28;;;;;;;;;;;;;;;16.42;59.54;101709.69;4882996;28;98097;-68
2021/11/18 10:45:07;;;;;;;;;;;;;;;16.62;59.26;101700.66;4881585;28;98733;-59
2021/11/18 10:47:51;;;;;;;;;;;;;;;16.72;59.25;101700.63;4882625;28;112301;-60
2021/11/18 10:50:35;;;;;;;;;;;;;;;16.87;59.11;101695.13;4881724;28;98603;-59
2021/11/18 10:53:03;;;;;;;;;;;;;;;17.00;59.26;101695.63;4882534;28;97741;-59
2021/11/18 10:55:35;;;;;;;;;;;;;;;17.08;59.28;101695.03;4882978;28;98417;-67
2021/11/18 10:58:05;;;;;;;;;;;;;;;17.13;59.38;101690.38;4865160;28;98118;-66
2021/11/18 11:00:44;;;;;;;;;;;;;;;17.10;59.62;101687.41;4882334;28;97898;-67
2021/11/18 11:03:38;;;;;;;;;;;;;;;17.06;59.71;101678.97;4882967;28;98719;-67
2021/11/18 11:06:21;;;;;;;;;;;;;;;17.04;60.03;101702.94;4879610;28;99179;-66
2021/11/18 11:08:52;;;;;;;;;;;;;;;17.01;60.06;101699.97;4882226;28;100328;-67
2021/11/18 11:12:03;;;;;;;;;;;;;;;16.98;60.10;101695.91;4882652;28;98177;-67
2021/11/18 11:14:42;;;;;;;;;;;;;;;17.02;60.12;101709.78;4825024;28;98926;-66
2021/11/18 11:17:47;;;;;;;;;;;;;;;17.07;60.09;101704.28;4862024;28;98684;-67
2021/11/18 11:20:28;;;;;;;;;;;;;;;17.10;60.03;101714.63;4863012;28;125668;-66
2021/11/18 11:23:14;;;;;;;;;;;;;;;17.17;60.08;101705.06;4850356;28;98329;-59
2021/11/18 11:26:18;;;;;;;;;;;;;;;17.17;60.09;101713.22;4865886;28;97820;-67
2021/11/18 11:29:05;;;;;;;;;;;;;;;17.26;60.06;101708.00;4865132;28;99165;-58
2021/11/18 11:31:52;;;;;;;;;;;;;;;17.42;59.67;101695.88;4865940;28;98184;-67
2021/11/18 11:34:41;;;;;;;;;;;;;;;17.49;59.66;101681.94;4863643;28;114730;-59
2021/11/18 11:37:40;;;;;;;;;;;;;;;17.56;59.84;101684.34;4866232;28;98087;-59
2021/11/18 11:40:06;;;;;;;;;;;;;;;17.70;59.68;101677.13;4866557;28;98732;-67
2021/11/18 11:42:55;;;;;;;;;;;;;;;17.77;59.68;101674.13;4885319;28;98606;-67
2021/11/18 11:45:37;;;;;;;;;;;;;;;17.88;59.71;101671.00;4853264;28;99208;-67
2021/11/18 11:48:21;;;;;;;;;;;;;;;18.01;59.69;101674.16;4868128;28;97821;-59
2021/11/18 11:51:27;;;;;;;;;;;;;;;17.85;60.10;101666.13;4885031;28;97780;-59
2021/11/18 11:54:08;;;;;;;;;;;;;;;17.66;60.54;101676.09;4884028;28;98089;-67
2021/11/18 11:56:35;;;;;;;;;;;;;;;17.52;60.77;101666.91;4884184;28;99238;-59
2021/11/18 11:59:19;;;;;;;;;;;;;;;17.45;60.73;101660.97;4884483;28;102374;-67
2021/11/18 12:02:17;;;;;;;;;;;;;;;17.39;60.79;101661.03;4866243;28;123069;-67
2021/11/18 12:04:47;;;;;;;;;;;;;;;17.22;61.21;101663.34;4865343;28;98469;-59
2021/11/18 12:07:22;;;;;;;;;;;;;;;17.17;61.10;101664.19;4884216;28;98604;-67
2021/11/18 12:09:48;;;;;;;;;;;;;;;17.25;60.89;101657.34;4884454;28;98399;-58
2021/11/18 12:12:22;;;;;;;;;;;;;;;17.36;60.66;101655.31;4883830;28;98396;-58
2021/11/18 12:14:48;;;;;;;;;;;;;;;17.44;60.58;101646.53;4884621;28;98507;-58
2021/11/18 12:17:28;;;;;;;;;;;;;;;17.58;60.32;101641.25;4883182;28;121198;-59
2021/11/18 12:20:16;;;;;;;;;;;;;;;17.47;60.85;101643.25;4867063;28;98589;-59
2021/11/18 12:22:41;;;;;;;;;;;;;;;17.41;60.90;101644.41;4866943;28;99129;-58
2021/11/18 12:25:32;;;;;;;;;;;;;;;17.35;61.16;101637.34;4883838;28;98336;-59
2021/11/18 12:28:16;;;;;;;;;;;;;;;17.26;61.25;101626.25;4883858;28;97893;-59
2021/11/18 12:31:02;;;;;;;;;;;;;;;17.23;61.35;101624.09;4884346;28;97896;-58
2021/11/18 12:33:28;;;;;;;;;;;;;;;17.16;61.26;101624.41;4882201;28;97930;-67
2021/11/18 12:36:08;;;;;;;;;;;;;;;17.11;61.45;101629.09;4883980;28;100413;-67
2021/11/18 12:38:53;;;;;;;;;;;;;;;17.03;61.47;101633.22;4864785;28;98333;-66
2021/11/18 12:41:37;;;;;;;;;;;;;;;16.98;61.57;101626.97;4860342;28;97962;-58
2021/11/18 12:44:27;;;;;;;;;;;;;;;16.97;61.70;101620.72;4864587;28;98588;-66
2021/11/18 12:47:08;;;;;;;;;;;;;;;17.00;61.29;101608.47;4865481;28;99425;-58
2021/11/18 12:49:47;;;;;;;;;;;;;;;16.98;61.44;101608.75;4866517;28;98144;-67